sensor_id;sensor_type;location;lat;lon;timestamp;temperature;humidity
429;DHT22;201;48.758;9.290;2022-09-09T00:00:15;14.20;2.70
429;DHT22;201;48.758;9.290;2022-09-09T00:02:48;14.30;2.00
429;DHT22;201;48.758;9.290;2022-09-09T00:05:44;14.30;1.80
429;DHT22;201;48.758;9.290;2022-09-09T00:08:22;14.40;1.70
429;DHT22;201;48.758;9.290;2022-09-09T00:10:56;14.30;1.60
429;DHT22;201;48.758;9.290;2022-09-09T00:13:45;14.30;2.00
429;DHT22;201;48.758;9.290;2022-09-09T00:16:15;14.30;2.80
429;DHT22;201;48.758;9.290;2022-09-09T00:24:52;14.10;3.70
429;DHT22;201;48.758;9.290;2022-09-09T00:27:30;14.10;3.70
429;DHT22;201;48.758;9.290;2022-09-09T00:32:48;14.00;3.70
429;DHT22;201;48.758;9.290;2022-09-09T00:37:45;14.00;3.70
429;DHT22;201;48.758;9.290;2022-09-09T00:40:24;14.10;4.50
429;DHT22;201;48.758;9.290;2022-09-09T00:43:19;14.20;5.00
429;DHT22;201;48.758;9.290;2022-09-09T00:48:32;14.30;5.20
429;DHT22;201;48.758;9.290;2022-09-09T00:51:08;14.40;4.70
429;DHT22;201;48.758;9.290;2022-09-09T00:54:13;14.40;5.00
429;DHT22;201;48.758;9.290;2022-09-09T00:56:51;14.50;4.40
429;DHT22;201;48.758;9.290;2022-09-09T00:59:50;14.60;4.10
429;DHT22;201;48.758;9.290;2022-09-09T01:02:49;14.70;4.20
429;DHT22;201;48.758;9.290;2022-09-09T01:07:57;14.80;4.00
429;DHT22;201;48.758;9.290;2022-09-09T01:10:59;14.80;3.00
429;DHT22;201;48.758;9.290;2022-09-09T01:13:27;14.80;1.70
429;DHT22;201;48.758;9.290;2022-09-09T01:15:57;14.90;2.50
429;DHT22;201;48.758;9.290;2022-09-09T01:18:27;14.90;2.40
429;DHT22;201;48.758;9.290;2022-09-09T01:23:52;14.80;1.80
429;DHT22;201;48.758;9.290;2022-09-09T01:26:41;14.90;2.40
429;DHT22;201;48.758;9.290;2022-09-09T01:29:09;14.80;1.60
429;DHT22;201;48.758;9.290;2022-09-09T01:31:40;14.80;1.00
429;DHT22;201;48.758;9.290;2022-09-09T01:34:14;14.80;1.00
429;DHT22;201;48.758;9.290;2022-09-09T01:36:57;14.80;1.00
429;DHT22;201;48.758;9.290;2022-09-09T01:39:23;14.80;1.00
429;DHT22;201;48.758;9.290;2022-09-09T01:41:49;14.80;1.40
429;DHT22;201;48.758;9.290;2022-09-09T01:44:15;14.80;1.00
429;DHT22;201;48.758;9.290;2022-09-09T01:46:41;14.80;1.00
429;DHT22;201;48.758;9.290;2022-09-09T01:49:07;14.80;1.00
429;DHT22;201;48.758;9.290;2022-09-09T01:51:35;14.90;1.00
429;DHT22;201;48.758;9.290;2022-09-09T01:54:01;14.90;1.00
429;DHT22;201;48.758;9.290;2022-09-09T01:56:40;14.90;1.00
429;DHT22;201;48.758;9.290;2022-09-09T01:59:11;14.90;1.00
429;DHT22;201;48.758;9.290;2022-09-09T02:04:45;14.80;1.00
429;DHT22;201;48.758;9.290;2022-09-09T02:09:45;14.80;1.00
429;DHT22;201;48.758;9.290;2022-09-09T02:12:14;14.80;1.00
429;DHT22;201;48.758;9.290;2022-09-09T02:14:49;14.70;1.20
429;DHT22;201;48.758;9.290;2022-09-09T02:17:21;14.60;1.00
429;DHT22;201;48.758;9.290;2022-09-09T02:19:54;14.60;1.00
429;DHT22;201;48.758;9.290;2022-09-09T02:22:23;14.60;1.00
429;DHT22;201;48.758;9.290;2022-09-09T02:24:51;14.60;1.00
429;DHT22;201;48.758;9.290;2022-09-09T02:27:21;14.60;1.00
429;DHT22;201;48.758;9.290;2022-09-09T02:29:49;14.60;1.00
429;DHT22;201;48.758;9.290;2022-09-09T02:32:21;14.60;1.00
429;DHT22;201;48.758;9.290;2022-09-09T02:34:54;14.60;1.00
429;DHT22;201;48.758;9.290;2022-09-09T02:37:24;14.60;1.00
429;DHT22;201;48.758;9.290;2022-09-09T02:39:54;14.50;1.00
429;DHT22;201;48.758;9.290;2022-09-09T02:42:20;14.50;1.00
429;DHT22;201;48.758;9.290;2022-09-09T02:44:45;14.50;1.00
429;DHT22;201;48.758;9.290;2022-09-09T02:47:24;14.40;1.00
429;DHT22;201;48.758;9.290;2022-09-09T02:57:58;14.30;1.60
429;DHT22;201;48.758;9.290;2022-09-09T03:00:26;14.20;2.30
429;DHT22;201;48.758;9.290;2022-09-09T03:02:52;14.20;2.20
429;DHT22;201;48.758;9.290;2022-09-09T03:05:20;14.00;2.00
429;DHT22;201;48.758;9.290;2022-09-09T03:07:46;14.00;2.60
429;DHT22;201;48.758;9.290;2022-09-09T03:10:11;13.90;2.40
429;DHT22;201;48.758;9.290;2022-09-09T03:12:37;13.90;2.30
429;DHT22;201;48.758;9.290;2022-09-09T03:15:04;13.90;2.40
429;DHT22;201;48.758;9.290;2022-09-09T03:17:30;13.90;2.30
429;DHT22;201;48.758;9.290;2022-09-09T03:19:55;13.90;2.10
429;DHT22;201;48.758;9.290;2022-09-09T03:22:23;14.00;2.20
429;DHT22;201;48.758;9.290;2022-09-09T03:24:48;14.00;2.10
429;DHT22;201;48.758;9.290;2022-09-09T03:27:14;14.00;2.10
429;DHT22;201;48.758;9.290;2022-09-09T03:29:40;14.00;2.30
429;DHT22;201;48.758;9.290;2022-09-09T03:32:05;14.00;2.80
429;DHT22;201;48.758;9.290;2022-09-09T03:34:31;14.00;3.40
429;DHT22;201;48.758;9.290;2022-09-09T03:36:57;13.90;3.60
429;DHT22;201;48.758;9.290;2022-09-09T03:39:22;13.80;3.60
429;DHT22;201;48.758;9.290;2022-09-09T03:41:48;13.60;4.80
429;DHT22;201;48.758;9.290;2022-09-09T03:44:14;13.40;5.80
429;DHT22;201;48.758;9.290;2022-09-09T03:46:40;13.30;6.70
429;DHT22;201;48.758;9.290;2022-09-09T03:49:05;13.10;7.70
429;DHT22;201;48.758;9.290;2022-09-09T03:51:31;12.90;9.00
429;DHT22;201;48.758;9.290;2022-09-09T03:53:56;12.80;9.90
429;DHT22;201;48.758;9.290;2022-09-09T03:56:23;12.70;10.60
429;DHT22;201;48.758;9.290;2022-09-09T03:58:49;12.60;11.40
429;DHT22;201;48.758;9.290;2022-09-09T04:01:15;12.60;11.40
429;DHT22;201;48.758;9.290;2022-09-09T04:03:43;12.60;11.40
429;DHT22;201;48.758;9.290;2022-09-09T04:06:11;12.60;11.50
429;DHT22;201;48.758;9.290;2022-09-09T04:08:38;12.70;11.50
429;DHT22;201;48.758;9.290;2022-09-09T04:11:05;12.70;11.50
429;DHT22;201;48.758;9.290;2022-09-09T04:13:35;12.70;11.50
429;DHT22;201;48.758;9.290;2022-09-09T04:16:03;12.70;11.50
429;DHT22;201;48.758;9.290;2022-09-09T04:18:29;12.80;11.60
429;DHT22;201;48.758;9.290;2022-09-09T04:20:55;12.80;11.10
429;DHT22;201;48.758;9.290;2022-09-09T04:23:23;12.80;10.80
429;DHT22;201;48.758;9.290;2022-09-09T04:25:53;12.80;10.60
429;DHT22;201;48.758;9.290;2022-09-09T04:28:22;12.80;10.60
429;DHT22;201;48.758;9.290;2022-09-09T04:30:48;12.70;10.70
429;DHT22;201;48.758;9.290;2022-09-09T04:33:14;12.60;11.50
429;DHT22;201;48.758;9.290;2022-09-09T04:35:45;12.60;11.50
429;DHT22;201;48.758;9.290;2022-09-09T04:38:11;12.60;11.40
429;DHT22;201;48.758;9.290;2022-09-09T04:40:37;12.60;11.40
429;DHT22;201;48.758;9.290;2022-09-09T04:43:08;12.70;11.50
429;DHT22;201;48.758;9.290;2022-09-09T04:45:34;12.80;10.70
429;DHT22;201;48.758;9.290;2022-09-09T04:48:00;12.80;10.20
429;DHT22;201;48.758;9.290;2022-09-09T04:50:25;12.90;10.00
429;DHT22;201;48.758;9.290;2022-09-09T04:52:51;13.00;9.30
429;DHT22;201;48.758;9.290;2022-09-09T04:55:16;13.10;8.70
429;DHT22;201;48.758;9.290;2022-09-09T04:57:42;13.20;8.50
429;DHT22;201;48.758;9.290;2022-09-09T05:00:08;13.30;8.20
429;DHT22;201;48.758;9.290;2022-09-09T05:02:37;13.20;8.30
429;DHT22;201;48.758;9.290;2022-09-09T05:05:04;13.20;8.70
429;DHT22;201;48.758;9.290;2022-09-09T05:07:30;13.20;9.20
429;DHT22;201;48.758;9.290;2022-09-09T05:09:56;13.10;9.40
429;DHT22;201;48.758;9.290;2022-09-09T05:12:22;13.00;9.80
429;DHT22;201;48.758;9.290;2022-09-09T05:14:51;13.00;9.90
429;DHT22;201;48.758;9.290;2022-09-09T05:17:16;13.00;10.20
429;DHT22;201;48.758;9.290;2022-09-09T05:19:42;13.00;11.20
429;DHT22;201;48.758;9.290;2022-09-09T05:22:08;13.00;12.00
429;DHT22;201;48.758;9.290;2022-09-09T05:24:33;13.00;11.10
429;DHT22;201;48.758;9.290;2022-09-09T05:26:59;13.00;10.70
429;DHT22;201;48.758;9.290;2022-09-09T05:29:27;13.00;10.50
429;DHT22;201;48.758;9.290;2022-09-09T05:31:52;13.10;10.20
429;DHT22;201;48.758;9.290;2022-09-09T05:34:18;13.20;10.10
429;DHT22;201;48.758;9.290;2022-09-09T05:36:44;13.50;10.40
429;DHT22;201;48.758;9.290;2022-09-09T05:39:10;14.10;10.00
429;DHT22;201;48.758;9.290;2022-09-09T05:41:37;14.80;7.70
429;DHT22;201;48.758;9.290;2022-09-09T05:44:02;15.50;3.60
429;DHT22;201;48.758;9.290;2022-09-09T05:46:28;15.90;1.00
429;DHT22;201;48.758;9.290;2022-09-09T05:48:54;16.20;1.00
429;DHT22;201;48.758;9.290;2022-09-09T05:51:24;16.10;1.00
429;DHT22;201;48.758;9.290;2022-09-09T05:53:51;15.90;1.00
429;DHT22;201;48.758;9.290;2022-09-09T05:56:21;15.90;1.00
429;DHT22;201;48.758;9.290;2022-09-09T05:58:51;15.70;1.00
429;DHT22;201;48.758;9.290;2022-09-09T06:01:26;15.70;1.00
429;DHT22;201;48.758;9.290;2022-09-09T06:03:52;15.50;1.00
429;DHT22;201;48.758;9.290;2022-09-09T06:06:20;15.40;1.00
429;DHT22;201;48.758;9.290;2022-09-09T06:08:46;15.20;1.00
429;DHT22;201;48.758;9.290;2022-09-09T06:11:14;15.20;1.60
429;DHT22;201;48.758;9.290;2022-09-09T06:13:41;15.30;1.70
429;DHT22;201;48.758;9.290;2022-09-09T06:16:12;15.30;1.70
429;DHT22;201;48.758;9.290;2022-09-09T06:18:38;15.50;1.60
429;DHT22;201;48.758;9.290;2022-09-09T06:21:06;15.50;2.10
429;DHT22;201;48.758;9.290;2022-09-09T06:23:33;15.60;2.30
429;DHT22;201;48.758;9.290;2022-09-09T06:26:16;15.50;1.00
429;DHT22;201;48.758;9.290;2022-09-09T06:28:46;15.60;1.00
429;DHT22;201;48.758;9.290;2022-09-09T06:31:14;15.60;1.00
429;DHT22;201;48.758;9.290;2022-09-09T06:33:43;15.70;1.00
429;DHT22;201;48.758;9.290;2022-09-09T06:36:15;15.80;1.00
429;DHT22;201;48.758;9.290;2022-09-09T06:38:44;15.80;1.00
429;DHT22;201;48.758;9.290;2022-09-09T06:41:12;15.80;1.00
429;DHT22;201;48.758;9.290;2022-09-09T06:43:37;15.80;1.00
429;DHT22;201;48.758;9.290;2022-09-09T06:46:06;16.00;1.00
429;DHT22;201;48.758;9.290;2022-09-09T06:48:33;16.30;1.00
429;DHT22;201;48.758;9.290;2022-09-09T06:51:18;16.40;1.00
429;DHT22;201;48.758;9.290;2022-09-09T06:53:45;16.50;1.00
429;DHT22;201;48.758;9.290;2022-09-09T06:58:40;16.70;1.00
429;DHT22;201;48.758;9.290;2022-09-09T07:01:10;16.70;1.00
429;DHT22;201;48.758;9.290;2022-09-09T07:03:38;16.70;1.00
429;DHT22;201;48.758;9.290;2022-09-09T07:06:04;16.90;1.00
429;DHT22;201;48.758;9.290;2022-09-09T07:08:30;17.00;1.00
429;DHT22;201;48.758;9.290;2022-09-09T07:11:02;17.20;1.00
429;DHT22;201;48.758;9.290;2022-09-09T07:13:29;17.40;1.00
429;DHT22;201;48.758;9.290;2022-09-09T07:15:55;17.50;1.00
429;DHT22;201;48.758;9.290;2022-09-09T07:18:20;17.80;1.00
429;DHT22;201;48.758;9.290;2022-09-09T07:20:55;18.00;1.00
429;DHT22;201;48.758;9.290;2022-09-09T07:23:22;18.20;1.00
429;DHT22;201;48.758;9.290;2022-09-09T07:25:48;18.50;1.00
429;DHT22;201;48.758;9.290;2022-09-09T07:28:14;18.60;1.00
429;DHT22;201;48.758;9.290;2022-09-09T07:30:39;18.70;1.00
429;DHT22;201;48.758;9.290;2022-09-09T07:33:06;19.00;1.00
429;DHT22;201;48.758;9.290;2022-09-09T07:35:32;19.50;1.00
429;DHT22;201;48.758;9.290;2022-09-09T07:37:57;19.80;1.00
429;DHT22;201;48.758;9.290;2022-09-09T07:40:24;20.00;1.00
429;DHT22;201;48.758;9.290;2022-09-09T07:42:49;20.00;1.00
429;DHT22;201;48.758;9.290;2022-09-09T07:45:15;19.90;1.00
429;DHT22;201;48.758;9.290;2022-09-09T07:47:40;19.90;1.00
429;DHT22;201;48.758;9.290;2022-09-09T07:50:09;19.80;1.00
429;DHT22;201;48.758;9.290;2022-09-09T07:52:35;20.20;1.00
429;DHT22;201;48.758;9.290;2022-09-09T07:55:01;21.70;1.00
429;DHT22;201;48.758;9.290;2022-09-09T07:57:28;22.90;1.00
429;DHT22;201;48.758;9.290;2022-09-09T07:59:56;22.80;1.00
429;DHT22;201;48.758;9.290;2022-09-09T08:02:22;22.40;1.00
429;DHT22;201;48.758;9.290;2022-09-09T08:04:48;23.60;1.00
429;DHT22;201;48.758;9.290;2022-09-09T08:07:14;26.40;1.00
429;DHT22;201;48.758;9.290;2022-09-09T08:09:41;28.50;1.00
429;DHT22;201;48.758;9.290;2022-09-09T08:12:07;30.50;1.00
429;DHT22;201;48.758;9.290;2022-09-09T08:14:33;31.50;1.00
429;DHT22;201;48.758;9.290;2022-09-09T08:16:59;33.20;1.00
429;DHT22;201;48.758;9.290;2022-09-09T08:19:24;34.50;1.00
429;DHT22;201;48.758;9.290;2022-09-09T08:21:50;34.20;1.00
429;DHT22;201;48.758;9.290;2022-09-09T08:24:16;32.60;1.00
429;DHT22;201;48.758;9.290;2022-09-09T08:26:44;31.50;1.00
429;DHT22;201;48.758;9.290;2022-09-09T08:29:11;32.40;1.00
429;DHT22;201;48.758;9.290;2022-09-09T08:31:44;33.60;1.00
429;DHT22;201;48.758;9.290;2022-09-09T08:34:11;34.80;1.00
429;DHT22;201;48.758;9.290;2022-09-09T08:36:39;36.70;1.00
429;DHT22;201;48.758;9.290;2022-09-09T08:39:06;37.90;1.00
429;DHT22;201;48.758;9.290;2022-09-09T08:47:39;39.20;1.00
429;DHT22;201;48.758;9.290;2022-09-09T08:52:19;40.80;1.00
429;DHT22;201;48.758;9.290;2022-09-09T08:54:47;40.00;1.00
429;DHT22;201;48.758;9.290;2022-09-09T08:57:21;39.80;1.00
429;DHT22;201;48.758;9.290;2022-09-09T08:59:50;40.30;1.00
429;DHT22;201;48.758;9.290;2022-09-09T09:10:57;38.50;1.00
429;DHT22;201;48.758;9.290;2022-09-09T09:13:43;38.70;1.00
429;DHT22;201;48.758;9.290;2022-09-09T09:16:26;40.20;1.00
429;DHT22;201;48.758;9.290;2022-09-09T09:18:53;41.40;1.00
429;DHT22;201;48.758;9.290;2022-09-09T09:27:12;41.20;1.00
429;DHT22;201;48.758;9.290;2022-09-09T09:29:39;39.10;1.00
429;DHT22;201;48.758;9.290;2022-09-09T09:32:08;38.50;1.00
429;DHT22;201;48.758;9.290;2022-09-09T09:34:35;38.70;1.00
429;DHT22;201;48.758;9.290;2022-09-09T09:37:01;37.00;1.00
429;DHT22;201;48.758;9.290;2022-09-09T09:41:54;30.50;1.00
429;DHT22;201;48.758;9.290;2022-09-09T09:44:31;26.00;1.00
429;DHT22;201;48.758;9.290;2022-09-09T09:47:13;24.00;1.00
429;DHT22;201;48.758;9.290;2022-09-09T09:49:39;24.80;1.00
429;DHT22;201;48.758;9.290;2022-09-09T09:52:06;24.90;1.00
429;DHT22;201;48.758;9.290;2022-09-09T09:54:41;25.40;1.00
429;DHT22;201;48.758;9.290;2022-09-09T09:57:15;29.20;1.00
429;DHT22;201;48.758;9.290;2022-09-09T09:59:41;33.30;1.00
429;DHT22;201;48.758;9.290;2022-09-09T10:02:24;36.10;1.00
429;DHT22;201;48.758;9.290;2022-09-09T10:05:28;38.10;1.00
429;DHT22;201;48.758;9.290;2022-09-09T10:08:12;39.50;1.00
429;DHT22;201;48.758;9.290;2022-09-09T10:14:08;43.30;1.00
429;DHT22;201;48.758;9.290;2022-09-09T10:19:35;45.30;1.00
429;DHT22;201;48.758;9.290;2022-09-09T10:27:56;45.90;1.00
429;DHT22;201;48.758;9.290;2022-09-09T10:30:47;46.50;1.00
429;DHT22;201;48.758;9.290;2022-09-09T10:36:13;43.60;1.00
429;DHT22;201;48.758;9.290;2022-09-09T10:39:01;41.90;1.00
429;DHT22;201;48.758;9.290;2022-09-09T10:42:20;40.00;1.00
429;DHT22;201;48.758;9.290;2022-09-09T10:53:24;37.10;1.00
429;DHT22;201;48.758;9.290;2022-09-09T10:55:59;34.60;1.00
429;DHT22;201;48.758;9.290;2022-09-09T10:58:40;32.90;1.00
429;DHT22;201;48.758;9.290;2022-09-09T11:01:24;31.70;1.00
429;DHT22;201;48.758;9.290;2022-09-09T11:04:05;30.50;1.00
429;DHT22;201;48.758;9.290;2022-09-09T11:06:39;29.60;1.00
429;DHT22;201;48.758;9.290;2022-09-09T11:09:14;28.60;1.00
429;DHT22;201;48.758;9.290;2022-09-09T11:11:46;28.30;1.00
429;DHT22;201;48.758;9.290;2022-09-09T11:14:20;28.30;1.00
429;DHT22;201;48.758;9.290;2022-09-09T11:16:53;28.10;1.00
429;DHT22;201;48.758;9.290;2022-09-09T11:19:36;27.80;1.00
429;DHT22;201;48.758;9.290;2022-09-09T11:24:46;26.50;1.00
429;DHT22;201;48.758;9.290;2022-09-09T11:27:19;25.90;1.00
429;DHT22;201;48.758;9.290;2022-09-09T11:35:49;24.50;1.00
429;DHT22;201;48.758;9.290;2022-09-09T11:38:44;24.00;1.00
429;DHT22;201;48.758;9.290;2022-09-09T11:41:10;23.50;1.00
429;DHT22;201;48.758;9.290;2022-09-09T11:43:45;23.10;1.00
429;DHT22;201;48.758;9.290;2022-09-09T11:46:13;22.50;1.00
429;DHT22;201;48.758;9.290;2022-09-09T11:48:41;21.50;1.00
429;DHT22;201;48.758;9.290;2022-09-09T11:51:24;20.50;1.00
429;DHT22;201;48.758;9.290;2022-09-09T11:53:52;19.80;1.00
429;DHT22;201;48.758;9.290;2022-09-09T11:59:19;19.50;1.00
429;DHT22;201;48.758;9.290;2022-09-09T12:01:48;19.90;1.00
429;DHT22;201;48.758;9.290;2022-09-09T12:09:27;21.20;1.00
429;DHT22;201;48.758;9.290;2022-09-09T12:17:18;22.20;1.00
429;DHT22;201;48.758;9.290;2022-09-09T12:19:44;22.30;1.00
429;DHT22;201;48.758;9.290;2022-09-09T12:22:28;22.60;1.00
429;DHT22;201;48.758;9.290;2022-09-09T12:28:24;22.70;1.00
429;DHT22;201;48.758;9.290;2022-09-09T12:33:36;23.20;1.00
429;DHT22;201;48.758;9.290;2022-09-09T12:36:04;23.50;1.00
429;DHT22;201;48.758;9.290;2022-09-09T12:38:34;23.60;1.00
429;DHT22;201;48.758;9.290;2022-09-09T12:41:01;23.50;1.00
429;DHT22;201;48.758;9.290;2022-09-09T12:43:28;23.50;1.00
429;DHT22;201;48.758;9.290;2022-09-09T12:46:03;23.50;1.00
429;DHT22;201;48.758;9.290;2022-09-09T12:48:37;23.50;1.00
429;DHT22;201;48.758;9.290;2022-09-09T12:51:16;23.60;1.00
429;DHT22;201;48.758;9.290;2022-09-09T12:53:42;23.80;1.00
429;DHT22;201;48.758;9.290;2022-09-09T12:56:21;24.10;1.00
429;DHT22;201;48.758;9.290;2022-09-09T12:58:50;24.40;1.00
429;DHT22;201;48.758;9.290;2022-09-09T13:01:25;24.40;1.00
429;DHT22;201;48.758;9.290;2022-09-09T13:03:52;24.40;1.00
429;DHT22;201;48.758;9.290;2022-09-09T13:06:23;24.40;1.00
429;DHT22;201;48.758;9.290;2022-09-09T13:08:51;24.70;1.00
429;DHT22;201;48.758;9.290;2022-09-09T13:11:24;25.10;1.00
429;DHT22;201;48.758;9.290;2022-09-09T13:13:52;25.00;1.00
429;DHT22;201;48.758;9.290;2022-09-09T13:16:30;24.70;1.00
429;DHT22;201;48.758;9.290;2022-09-09T13:19:00;24.10;1.00
429;DHT22;201;48.758;9.290;2022-09-09T13:21:37;23.80;1.00
429;DHT22;201;48.758;9.290;2022-09-09T13:24:05;23.40;1.00
429;DHT22;201;48.758;9.290;2022-09-09T13:26:33;23.10;1.00
429;DHT22;201;48.758;9.290;2022-09-09T13:29:17;23.20;1.00
429;DHT22;201;48.758;9.290;2022-09-09T13:31:45;23.60;1.00
429;DHT22;201;48.758;9.290;2022-09-09T13:34:30;23.60;1.00
429;DHT22;201;48.758;9.290;2022-09-09T13:37:01;23.80;1.00
429;DHT22;201;48.758;9.290;2022-09-09T13:39:37;23.70;1.00
429;DHT22;201;48.758;9.290;2022-09-09T13:42:03;24.00;1.00
429;DHT22;201;48.758;9.290;2022-09-09T13:44:33;24.20;1.00
429;DHT22;201;48.758;9.290;2022-09-09T13:47:06;24.40;1.00
429;DHT22;201;48.758;9.290;2022-09-09T13:49:32;24.60;1.00
429;DHT22;201;48.758;9.290;2022-09-09T13:52:11;24.70;1.00
429;DHT22;201;48.758;9.290;2022-09-09T13:54:40;24.80;1.00
429;DHT22;201;48.758;9.290;2022-09-09T13:57:18;24.20;1.00
429;DHT22;201;48.758;9.290;2022-09-09T13:59:47;23.90;1.00
429;DHT22;201;48.758;9.290;2022-09-09T14:02:14;23.40;1.00
429;DHT22;201;48.758;9.290;2022-09-09T14:04:40;23.20;1.00
429;DHT22;201;48.758;9.290;2022-09-09T14:07:16;23.30;1.00
429;DHT22;201;48.758;9.290;2022-09-09T14:09:42;23.40;1.00
429;DHT22;201;48.758;9.290;2022-09-09T14:12:11;23.50;1.00
429;DHT22;201;48.758;9.290;2022-09-09T14:14:37;23.20;1.00
429;DHT22;201;48.758;9.290;2022-09-09T14:17:03;22.80;1.00
429;DHT22;201;48.758;9.290;2022-09-09T14:19:29;22.40;1.00
429;DHT22;201;48.758;9.290;2022-09-09T14:21:56;22.20;1.00
429;DHT22;201;48.758;9.290;2022-09-09T14:24:22;22.50;1.00
429;DHT22;201;48.758;9.290;2022-09-09T14:26:47;22.70;1.00
429;DHT22;201;48.758;9.290;2022-09-09T14:29:13;22.90;1.00
429;DHT22;201;48.758;9.290;2022-09-09T14:31:38;23.10;1.00
429;DHT22;201;48.758;9.290;2022-09-09T14:34:04;23.10;1.00
429;DHT22;201;48.758;9.290;2022-09-09T14:36:29;23.00;1.00
429;DHT22;201;48.758;9.290;2022-09-09T14:38:55;23.10;1.00
429;DHT22;201;48.758;9.290;2022-09-09T14:41:20;23.10;1.00
429;DHT22;201;48.758;9.290;2022-09-09T14:43:48;23.20;1.00
429;DHT22;201;48.758;9.290;2022-09-09T14:46:16;23.20;1.00
429;DHT22;201;48.758;9.290;2022-09-09T14:48:42;23.40;1.00
429;DHT22;201;48.758;9.290;2022-09-09T14:53:42;23.30;1.00
429;DHT22;201;48.758;9.290;2022-09-09T14:56:14;23.20;1.00
429;DHT22;201;48.758;9.290;2022-09-09T14:58:39;23.20;1.00
429;DHT22;201;48.758;9.290;2022-09-09T15:01:10;23.30;1.00
429;DHT22;201;48.758;9.290;2022-09-09T15:03:37;23.30;1.00
429;DHT22;201;48.758;9.290;2022-09-09T15:06:13;23.00;1.00
429;DHT22;201;48.758;9.290;2022-09-09T15:08:44;22.90;1.00
429;DHT22;201;48.758;9.290;2022-09-09T15:11:11;22.70;1.00
429;DHT22;201;48.758;9.290;2022-09-09T15:13:38;22.60;1.00
429;DHT22;201;48.758;9.290;2022-09-09T15:16:12;22.70;1.00
429;DHT22;201;48.758;9.290;2022-09-09T15:18:38;22.60;1.00
429;DHT22;201;48.758;9.290;2022-09-09T15:21:11;22.50;1.00
429;DHT22;201;48.758;9.290;2022-09-09T15:23:37;22.40;1.00
429;DHT22;201;48.758;9.290;2022-09-09T15:26:03;22.20;1.00
429;DHT22;201;48.758;9.290;2022-09-09T15:28:31;22.00;1.00
429;DHT22;201;48.758;9.290;2022-09-09T15:30:58;21.70;1.00
429;DHT22;201;48.758;9.290;2022-09-09T15:33:25;21.50;1.00
429;DHT22;201;48.758;9.290;2022-09-09T15:35:50;21.50;1.00
429;DHT22;201;48.758;9.290;2022-09-09T15:38:16;21.50;1.00
429;DHT22;201;48.758;9.290;2022-09-09T15:40:43;21.50;1.00
429;DHT22;201;48.758;9.290;2022-09-09T15:43:09;21.50;1.00
429;DHT22;201;48.758;9.290;2022-09-09T15:45:36;21.60;1.00
429;DHT22;201;48.758;9.290;2022-09-09T15:48:02;21.70;1.00
429;DHT22;201;48.758;9.290;2022-09-09T15:50:28;21.70;1.00
429;DHT22;201;48.758;9.290;2022-09-09T15:52:56;21.50;1.00
429;DHT22;201;48.758;9.290;2022-09-09T15:55:22;21.20;1.00
429;DHT22;201;48.758;9.290;2022-09-09T15:57:51;21.00;1.00
429;DHT22;201;48.758;9.290;2022-09-09T16:00:20;20.90;1.00
429;DHT22;201;48.758;9.290;2022-09-09T16:02:47;20.80;1.00
429;DHT22;201;48.758;9.290;2022-09-09T16:05:13;20.60;1.00
429;DHT22;201;48.758;9.290;2022-09-09T16:07:38;20.50;1.00
429;DHT22;201;48.758;9.290;2022-09-09T16:10:04;20.30;1.00
429;DHT22;201;48.758;9.290;2022-09-09T16:12:31;20.30;1.00
429;DHT22;201;48.758;9.290;2022-09-09T16:14:56;20.20;1.00
429;DHT22;201;48.758;9.290;2022-09-09T16:17:22;20.20;1.00
429;DHT22;201;48.758;9.290;2022-09-09T16:19:47;20.10;1.00
429;DHT22;201;48.758;9.290;2022-09-09T16:22:13;20.10;1.00
429;DHT22;201;48.758;9.290;2022-09-09T16:24:40;20.10;1.00
429;DHT22;201;48.758;9.290;2022-09-09T16:27:06;20.10;1.00
429;DHT22;201;48.758;9.290;2022-09-09T16:29:32;20.10;1.00
429;DHT22;201;48.758;9.290;2022-09-09T16:31:57;20.10;1.00
429;DHT22;201;48.758;9.290;2022-09-09T16:34:24;20.10;1.00
429;DHT22;201;48.758;9.290;2022-09-09T16:36:50;20.00;1.00
429;DHT22;201;48.758;9.290;2022-09-09T16:39:18;20.00;1.00
429;DHT22;201;48.758;9.290;2022-09-09T16:41:45;20.00;1.00
429;DHT22;201;48.758;9.290;2022-09-09T16:44:13;20.00;1.00
429;DHT22;201;48.758;9.290;2022-09-09T16:46:42;20.00;1.00
429;DHT22;201;48.758;9.290;2022-09-09T16:49:10;20.00;1.00
429;DHT22;201;48.758;9.290;2022-09-09T16:51:38;20.00;1.00
429;DHT22;201;48.758;9.290;2022-09-09T16:54:06;20.00;1.00
429;DHT22;201;48.758;9.290;2022-09-09T16:56:33;20.00;1.00
429;DHT22;201;48.758;9.290;2022-09-09T16:59:04;19.90;1.00
429;DHT22;201;48.758;9.290;2022-09-09T17:01:32;19.80;1.00
429;DHT22;201;48.758;9.290;2022-09-09T17:04:00;19.60;1.00
429;DHT22;201;48.758;9.290;2022-09-09T17:06:26;19.50;1.00
429;DHT22;201;48.758;9.290;2022-09-09T17:09:00;19.30;1.00
429;DHT22;201;48.758;9.290;2022-09-09T17:11:27;19.30;1.00
429;DHT22;201;48.758;9.290;2022-09-09T17:13:54;19.20;1.00
429;DHT22;201;48.758;9.290;2022-09-09T17:16:22;19.00;1.00
429;DHT22;201;48.758;9.290;2022-09-09T17:18:50;18.80;1.00
429;DHT22;201;48.758;9.290;2022-09-09T17:21:19;18.60;1.00
429;DHT22;201;48.758;9.290;2022-09-09T17:23:45;18.50;1.00
429;DHT22;201;48.758;9.290;2022-09-09T17:26:14;18.40;1.00
429;DHT22;201;48.758;9.290;2022-09-09T17:28:41;18.30;1.00
429;DHT22;201;48.758;9.290;2022-09-09T17:31:08;18.10;1.00
429;DHT22;201;48.758;9.290;2022-09-09T17:33:36;18.00;1.00
429;DHT22;201;48.758;9.290;2022-09-09T17:36:08;17.90;1.00
429;DHT22;201;48.758;9.290;2022-09-09T17:38:34;17.80;1.00
429;DHT22;201;48.758;9.290;2022-09-09T17:41:13;17.60;1.00
429;DHT22;201;48.758;9.290;2022-09-09T17:43:39;17.50;1.00
429;DHT22;201;48.758;9.290;2022-09-09T17:46:10;17.40;1.00
429;DHT22;201;48.758;9.290;2022-09-09T17:48:36;17.40;1.00
429;DHT22;201;48.758;9.290;2022-09-09T17:51:07;17.30;1.00
429;DHT22;201;48.758;9.290;2022-09-09T17:53:37;17.20;1.00
429;DHT22;201;48.758;9.290;2022-09-09T17:56:06;17.20;1.00
429;DHT22;201;48.758;9.290;2022-09-09T17:58:32;17.10;1.00
429;DHT22;201;48.758;9.290;2022-09-09T18:01:05;17.20;1.00
429;DHT22;201;48.758;9.290;2022-09-09T18:03:34;17.20;1.00
429;DHT22;201;48.758;9.290;2022-09-09T18:06:05;17.20;1.00
429;DHT22;201;48.758;9.290;2022-09-09T18:08:31;17.20;1.00
429;DHT22;201;48.758;9.290;2022-09-09T18:10:57;17.30;1.00
429;DHT22;201;48.758;9.290;2022-09-09T18:13:23;17.20;1.00
429;DHT22;201;48.758;9.290;2022-09-09T18:15:49;17.20;1.00
429;DHT22;201;48.758;9.290;2022-09-09T18:18:15;17.20;1.00
429;DHT22;201;48.758;9.290;2022-09-09T18:20:41;17.10;1.00
429;DHT22;201;48.758;9.290;2022-09-09T18:23:07;17.10;1.00
429;DHT22;201;48.758;9.290;2022-09-09T18:25:39;17.10;1.00
429;DHT22;201;48.758;9.290;2022-09-09T18:28:04;17.00;1.00
429;DHT22;201;48.758;9.290;2022-09-09T18:30:30;17.00;1.00
429;DHT22;201;48.758;9.290;2022-09-09T18:32:56;17.10;1.00
429;DHT22;201;48.758;9.290;2022-09-09T18:35:22;17.10;1.00
429;DHT22;201;48.758;9.290;2022-09-09T18:37:48;17.10;1.00
429;DHT22;201;48.758;9.290;2022-09-09T18:40:14;17.10;1.00
429;DHT22;201;48.758;9.290;2022-09-09T18:42:39;17.10;1.00
429;DHT22;201;48.758;9.290;2022-09-09T18:45:05;17.10;1.00
429;DHT22;201;48.758;9.290;2022-09-09T18:47:31;17.20;1.00
429;DHT22;201;48.758;9.290;2022-09-09T18:49:56;17.10;1.00
429;DHT22;201;48.758;9.290;2022-09-09T18:52:22;17.10;1.00
429;DHT22;201;48.758;9.290;2022-09-09T18:54:47;17.10;1.00
429;DHT22;201;48.758;9.290;2022-09-09T18:57:15;17.10;1.00
429;DHT22;201;48.758;9.290;2022-09-09T18:59:40;17.10;1.00
429;DHT22;201;48.758;9.290;2022-09-09T19:02:06;17.10;1.00